National Weather Service United States Department of Commerce

A Large and Slow-Moving Storm System with Thunderstorms and Heavy Rain

A large storm system will slowly track from the south-central U.S. into the East the rest of the week with strong to severe thunderstorms and heavy rain with flooding. Today's threat for severe storms is across Texas toward the Arklatex and heavy rain with flooding from the south-central Plains into the Lower Mississippi Valley. Also, critical fire weather threats are present again in New Mexico. Read More >

Aviation Forecast Discussion

.AVIATION /10Z TUESDAY THROUGH SATURDAY/...
The following discussion is for KPHL, KPNE, KTTN, KABE, 
KRDG, KILG, KMIV, KACY and surrounding areas.

Today...VFR with light rain and/or showers, especially at ILG and 
points south. The Philly terminals should remain mostly dry, though 
some drizzle cannot be completely ruled out, especially through 12Z. 
Winds from the east turning slightly more east-southeast in the 
afternoon from 10 to 15 knots. Moderate confidence. 

Tonight...VFR with rising CIGs. Winds turning northeast around 5 
knots. High confidence.

Outlook...

Wednesday...Mainly VFR. A chance of MVFR ceilings south of PHL after 
00Z. Easterly winds around 10 kts becoming 5 kts or less at night. 
Moderate confidence.

Thursday...MVFR or IFR ceilings probable. Showers or drizzle may 
also cause some visibility restrictions. Southeasterly winds around 
10 kts becoming more southerly overnight. Low confidence.

Friday...MVFR to IFR restrictions probable with showers likely. 
Southerly winds 10-15 kts with gusts around 20 kts. Winds will 
diminish and shift more southwesterly after 00Z. A chance of 
lingering showers overnight. Moderate confidence.

Saturday...Sub-VFR restrictions possible along with a chance of 
showers. West to southwesterly winds 5-10 kts. Low confidence.

&&

Latest PHL Terminal Aerodrome Forecast (TAF)

FTNA35 KPHL 081725 RRC
KPHL 081721Z 0818/0924 35008KT P6SM SKC
     FM090100 31004KT P6SM SKC
     FM091400 30006KT P6SM FEW250

Latest Area Terminal Aerodrome Forecasts (TAFs)

FTUS51 KPNE 241121 RRB
KPNE 241120Z 2412/2512 12006KT P6SM FEW080 BKN100
     FM241800 10009KT P6SM BKN060
     FM250000 08005KT P6SM BKN150
     FM251100 06006KT P6SM BKN140

FTUS80 KTTN 241121 RRX
KTTN 241120Z 2412/2512 11006KT P6SM BKN110
     FM241600 12009KT P6SM BKN070
     FM250000 08004KT P6SM BKN100
     FM251100 06005KT P6SM BKN150

FTUS41 KILG 241121 RRA
KILG 241120Z 2412/2512 09006KT P6SM SCT120
     FM241400 10010KT P6SM OVC050
     FM241600 12008KT 6SM BR OVC035
     FM242200 10007KT P6SM BKN070
     FM250300 07005KT P6SM BKN100

FTUS80 KRDG 241121 RRW
KRDG 241120Z 2412/2512 VRB04KT P6SM FEW045 OVC060
     FM241400 10010KT P6SM BKN050
     FM242000 13007KT P6SM BKN045
     FM242200 13006KT P6SM BKN060
     FM250300 VRB03KT P6SM BKN090

FTUS41 KABE 241121
KABE 241120Z 2412/2512 06010KT P6SM OVC080
     FM241500 11009KT P6SM BKN045
     FM242100 12007KT P6SM BKN060
     FM250100 VRB04KT P6SM BKN090

FTNA35 KACY 241123 RRD
KACY 241120Z 2412/2512 07005KT 6SM BR VCSH FEW070 SCT090
     FM241500 08012KT P6SM OVC050
     FM241900 09010G18KT 6SM BR OVC060
     FM242300 07008KT P6SM BKN060

FTUS51 KMIV 241121 RRB
KMIV 241120Z 2412/2512 10005KT P6SM VCSH BKN100
      TEMPO 2412/2414 4SM -SHRA OVC025
     FM241500 09009KT P6SM VCSH OVC060
     FM242000 09009KT P6SM BKN050
     FM250400 07005KT P6SM BKN080

FTUS80 KEWR 241124 RRB
KEWR 241121Z 2412/2518 08008KT P6SM SCT045 BKN090
     FM241700 14008KT P6SM SCT050 BKN090
     FM250100 12005KT P6SM SCT090
     FM250500 07005KT P6SM SCT080
     FM251500 11007KT P6SM BKN080

FTUS80 KLGA 241124 RRC
KLGA 241121Z 2412/2518 06010KT P6SM SCT045 BKN090
     FM242000 13009KT P6SM SCT050 BKN090
     FM242300 12007KT P6SM SCT090
     FM250600 07006KT P6SM SCT080
     FM251300 07008KT P6SM BKN080

FTNA35 KJFK 241127 RRE
KJFK 241121Z 2412/2518 08007KT P6SM SCT045 BKN090
     FM241800 13011KT P6SM SCT050 BKN090
     FM242300 12008KT P6SM SCT090
     FM250400 08005KT P6SM SCT080
     FM251500 11008KT P6SM BKN080

FTUS41 KMDT 241121 RRA
KMDT 241120Z 2412/2512 VRB03KT P6SM OVC050
     FM241400 13004KT P6SM OVC025
     FM242100 12004KT P6SM OVC050

FTUS41 KLWX 241139
TAFBWI
TAF
KBWI 241139Z 2412/2518 08006KT 6SM -SHRA SCT035 BKN050 OVC100
     FM241400 09008KT 6SM -SHRA OVC025
     FM241600 09009KT P6SM OVC015
     FM242200 08007KT P6SM BKN035
     FM250500 07005KT P6SM BKN040=

FTUS41 KLWX 241139
TAFIAD
TAF
KIAD 241139Z 2412/2518 03004KT 6SM -SHRA FEW008 BKN020 OVC030
     FM241400 08005KT P6SM OVC008
     FM242100 07006KT P6SM OVC015
     FM250200 00000KT P6SM OVC030
     FM250700 03003KT P6SM BKN040=

FTUS41 KLWX 241139
TAFDCA
TAF
KDCA 241139Z 2412/2518 06006KT 6SM -SHRA FEW008 SCT025 OVC040
     FM241500 08007KT P6SM OVC025
     FM250100 07005KT P6SM OVC035
     FM251600 06006KT P6SM BKN050=

Raw METARs for WFO PHI CWA and Surrounding Areas

--TAFs--TimeTTdRHHIWCDirWindGPKVisWxPcpClouds
KRDG1230Z6352689OVC060
KABE1230Z61465960910OVC070
KTTN1230Z61547760710OVC065
KPNE1230Z635577801010OVC065
KPHL1230Z64546890810BKN070
KILG1230Z63557790910OVC060
KMIV1225Z59558880910 -RAOVC100
KACY1154Z585693707100.01SCT060
OVC110
--PA--TimeTTdRHHIWCDirWindGPKVisWxPcpClouds
KMPO1230Z52457790710SCT014
OVC060
K22N1235Z57435950510OVC065
KXLL1215Z61465930610OVC075
KUKT1235Z615477VRB510OVC060
KCKZ1215Z59548290510OVC060
KDYL1230Z63526850510OVC065
KPTW1225Z59527780610OVC060
KLOM1215Z60558170510OVC060
KOQN1235Z63547370510OVC060
KMQS1215Z5957949091610BKN010
BKN050
--NJ--TimeTTdRHHIWCDirWindGPKVisWxPcpClouds
KFWN1225Z57456350910OVC080
K12N1154Z594764VRB3
KMMU1145Z615272100610SCT022
OVC085
KSMQ1230Z63526880610SCT040
OVC080
KBLM1230Z615272601210OVC070
KNEL1200Z60548060810TFEW045
BKN070
OVC100
KWRI1156Z60558350610OVC070
KVAY1230Z63557770510OVC065
KWWD1230Z595588601010 -RA0.01BKN060
OVC070
--DE--TimeTTdRHHIWCDirWindGPKVisWxPcpClouds
K33N1215Z59591006038BKN030
BKN035
BKN046
KDOV1156Z606010040710 -RATFEW015
OVC043
KGED1230Z61599470810 -RA0.01BKN007
BKN055
OVC075
--MD--TimeTTdRHHIWCDirWindGPKVisWxPcpClouds
KW291220Z59591009057 -RA BR0.01OVC045
KESN1145Z5957944037 -RABKN042
KCGE1215Z5959100calm5 BRFEW030
OVC039
--OKXTAF--TimeTTdRHHIWCDirWindGPKVisWxPcpClouds
KTEB1230Z61486360810OVC046
KEWR1230Z64506060810FEW030
BKN046
BKN090
KLGA1230Z614863501210BKN043
KJFK1225Z615068501210OVC049
KISP1230Z614863401510OVC055
KHPN1230Z59466380810BKN047
OVC085
KSWF1145Z55456770710BKN035
KBDR1225Z594663601210FEW050
KGON1230Z614352301310CLR
--LWXTAF--TimeTTdRHHIWCDirWindGPKVisWxPcpClouds
KMTN1154Z61558380310OVC050
KBWI1230Z61558390710SCT035
OVC043
KDCA1230Z61558380710OVC038
KIAD1230Z5955885068 -RA0.02FEW007
BKN026
OVC031
KMRB1230Z575488calm3 BRBKN022
OVC028
KCHO1230Z57548840102 BR0.01OVC005
-Misc-TimeTTdRHHIWCDirWindGPKVisWxPcpClouds
KCDW1230Z63485980910OVC042
KLNS1230Z63526880610OVC055
KHZL1235Z554363100710BKN050
OVC070
KAVP1230Z57456360810OVC070
KCXY1230Z64506060610OVC050
KMDT1230Z635268calm10OVC050
KUNV1153Z54488240710OVC045
KTHV1230Z615477calm10OVC048
KSEG1230Z615272calm10FEW055
OVC070
KMUI1156Z60466130310OVC050
KAPG1158Z61578680510SCT030
BKN060
KNHK1229Z6056863091 1/2 +RA BR0.3FEW014
SCT022
OVC040
KOXB1230Z61599460125 -RA BR0.08FEW005
BKN055
OVC070
KSBY1234Z6058937062 RA BR0.11BKN005
OVC043
KWAL1232Z615994701310 -RAFEW007
BKN047
OVC075
KBGM1230Z54436790710OVC050
KNYC1151Z605070601010OVC044
KMSV1230Z543958901010BKN055
BKN075
KMGJ1230Z55436350910OVC037
KPOU1230Z57456320610OVC040

 

KDIX Radar Loop

KDIX Radar

KDOX Radar Loop

KDOX Radar

Visible Satellite

Visible ImageVisible Loop

Infrared Satellite

Infrared ImageInfrared Loop

ZNY Briefing

ZNY Briefing

ZNY SWAP Statement

ZNY SWAP Statement

KPHL Wind Speed Outlook

KPHL Wind Outlook

KPHL Icing Outlook

KPHL Icing  Outlook

KPHL Compression Outlook

KPHL Compression Outlook

ZNY Day 1 SWAP

KPHL Day 1 SWAP

ZNY Day 2 SWAP

KPHL Day 2 SWAP

Turbulence PIREPs

Turbulence PIREPs

Icing PIREPs

Icing PIREPs

Weather/Sky PIREPs

Weather/Sky PIREPs

Current AIRMETs/SIGMETs

Current AIRMETs/SIGMETs

Sierra (Mountains/IFR) AIRMETs

Current 3-hr Forecast 6-hr Forecast

No Plot Available

No Plot Available

No Plot Available

9-hr Forecast 12-hr Forecast

No Plot Available

No Plot Available

Tango (Turbulence/LLWS) AIRMETs

Current 3-hr Forecast 6-hr Forecast

No Plot Available

No Plot Available

No Plot Available

9-hr Forecast 12-hr Forecast

No Plot Available

No Plot Available

Icing AIRMETs

Current 3-hr Forecast 6-hr Forecast

No Plot Available

No Plot Available

No Plot Available

9-hr Forecast 12-hr Forecast

No Plot Available

No Plot Available

Freezing Level AIRMETs

Current 3-hr Forecast 6-hr Forecast

No Plot Available

No Plot Available

No Plot Available

9-hr Forecast 12-hr Forecast

No Plot Available

No Plot Available